Weather at Miami International Airport

Public forecast

Using degrees Fahrenheit for public forecast. Weather courtesy of forecast.io.

Current aviation weather report (METAR) for Miami International Airport

Retrieved 2021/03/04 00:53 UTC (2 hours ago):

KMIA 040053Z 28006KT 10SM FEW100 24/19 A2995 RMK AO2 SLP140 T02440194

Aviation forecast (TAF) for Miami International Airport

Retrieved 2021-03-04 00:22 UTC (2 hours ago):

TAF KMIA 032320Z 0400/0506 28010KT P6SM FEW025 SCT250 FM040400 30005KT P6SM FEW250 FM041500 32010KT P6SM SKC FM050000 33005KT P6SM SKC